sensor_id;sensor_type;location;lat;lon;timestamp;pressure;altitude;pressure_sealevel;temperature;humidity
35806;BME280;21925;44.608;11.580;2024-03-22T00:00:39;102204.28;;;14.90;100.00
35806;BME280;21925;44.608;11.580;2024-03-22T00:03:05;102194.97;;;14.83;100.00
35806;BME280;21925;44.608;11.580;2024-03-22T00:05:30;102183.44;;;14.81;100.00
35806;BME280;21925;44.608;11.580;2024-03-22T00:07:56;102191.31;;;14.91;100.00
35806;BME280;21925;44.608;11.580;2024-03-22T00:10:22;102205.13;;;15.03;100.00
35806;BME280;21925;44.608;11.580;2024-03-22T00:12:49;102210.66;;;15.03;100.00
35806;BME280;21925;44.608;11.580;2024-03-22T00:15:15;102188.16;;;14.80;100.00
35806;BME280;21925;44.608;11.580;2024-03-22T00:17:43;102208.41;;;14.84;100.00
35806;BME280;21925;44.608;11.580;2024-03-22T00:20:09;102204.38;;;14.82;100.00
35806;BME280;21925;44.608;11.580;2024-03-22T00:22:35;102193.03;;;14.63;100.00
35806;BME280;21925;44.608;11.580;2024-03-22T00:25:00;102203.19;;;14.71;100.00
35806;BME280;21925;44.608;11.580;2024-03-22T00:27:26;102205.06;;;14.46;100.00
35806;BME280;21925;44.608;11.580;2024-03-22T00:29:52;102200.44;;;14.50;100.00
35806;BME280;21925;44.608;11.580;2024-03-22T00:32:17;102199.53;;;14.46;100.00
35806;BME280;21925;44.608;11.580;2024-03-22T00:34:43;102174.03;;;14.49;100.00
35806;BME280;21925;44.608;11.580;2024-03-22T00:37:09;102176.91;;;14.53;100.00
35806;BME280;21925;44.608;11.580;2024-03-22T00:39:34;102179.81;;;14.36;100.00
35806;BME280;21925;44.608;11.580;2024-03-22T00:42:01;102196.44;;;13.78;100.00
35806;BME280;21925;44.608;11.580;2024-03-22T00:44:27;102197.00;;;13.92;100.00
35806;BME280;21925;44.608;11.580;2024-03-22T00:46:52;102204.66;;;14.16;100.00
35806;BME280;21925;44.608;11.580;2024-03-22T00:49:18;102199.81;;;14.33;100.00
35806;BME280;21925;44.608;11.580;2024-03-22T00:51:44;102186.28;;;14.20;100.00
35806;BME280;21925;44.608;11.580;2024-03-22T00:54:10;102183.00;;;13.97;100.00
35806;BME280;21925;44.608;11.580;2024-03-22T00:56:36;71488.41;;;-140.51;100.00
35806;BME280;21925;44.608;11.580;2024-03-22T00:59:01;71488.41;;;-140.51;100.00
35806;BME280;21925;44.608;11.580;2024-03-22T01:01:27;71488.41;;;-140.51;100.00
35806;BME280;21925;44.608;11.580;2024-03-22T01:03:53;71488.41;;;-140.51;100.00
35806;BME280;21925;44.608;11.580;2024-03-22T01:06:19;71488.41;;;-140.51;100.00
35806;BME280;21925;44.608;11.580;2024-03-22T01:08:49;71488.41;;;-140.51;100.00
35806;BME280;21925;44.608;11.580;2024-03-22T01:11:15;71488.41;;;-140.51;100.00
35806;BME280;21925;44.608;11.580;2024-03-22T01:13:41;71488.41;;;-140.51;100.00
35806;BME280;21925;44.608;11.580;2024-03-22T01:16:06;71488.41;;;-140.51;100.00
35806;BME280;21925;44.608;11.580;2024-03-22T01:18:35;71488.41;;;-140.51;100.00
35806;BME280;21925;44.608;11.580;2024-03-22T01:21:02;71488.41;;;-140.51;100.00
35806;BME280;21925;44.608;11.580;2024-03-22T01:23:27;71488.41;;;-140.51;100.00
35806;BME280;21925;44.608;11.580;2024-03-22T01:25:53;71488.41;;;-140.51;100.00
35806;BME280;21925;44.608;11.580;2024-03-22T01:28:19;71488.41;;;-140.51;100.00
35806;BME280;21925;44.608;11.580;2024-03-22T01:30:44;71488.41;;;-140.51;100.00
35806;BME280;21925;44.608;11.580;2024-03-22T01:33:10;71488.41;;;-140.51;100.00
35806;BME280;21925;44.608;11.580;2024-03-22T01:35:36;71488.41;;;-140.51;100.00
35806;BME280;21925;44.608;11.580;2024-03-22T01:38:01;71488.41;;;-140.51;100.00
35806;BME280;21925;44.608;11.580;2024-03-22T01:40:27;71488.41;;;-140.51;100.00
35806;BME280;21925;44.608;11.580;2024-03-22T01:42:55;71488.41;;;-140.51;100.00
35806;BME280;21925;44.608;11.580;2024-03-22T01:45:21;71488.41;;;-140.51;100.00
35806;BME280;21925;44.608;11.580;2024-03-22T01:47:53;71488.41;;;-140.51;100.00
35806;BME280;21925;44.608;11.580;2024-03-22T01:50:21;71488.41;;;-140.51;100.00
35806;BME280;21925;44.608;11.580;2024-03-22T01:52:46;71488.41;;;-140.51;100.00
35806;BME280;21925;44.608;11.580;2024-03-22T01:55:13;71488.41;;;-140.51;100.00
35806;BME280;21925;44.608;11.580;2024-03-22T01:57:39;71488.41;;;-140.51;100.00
35806;BME280;21925;44.608;11.580;2024-03-22T02:00:07;71488.41;;;-140.51;100.00
35806;BME280;21925;44.608;11.580;2024-03-22T02:02:39;71488.41;;;-140.51;100.00
35806;BME280;21925;44.608;11.580;2024-03-22T02:05:15;71488.41;;;-140.51;100.00
35806;BME280;21925;44.608;11.580;2024-03-22T02:07:42;71488.41;;;-140.51;100.00
35806;BME280;21925;44.608;11.580;2024-03-22T02:10:08;71488.41;;;-140.51;100.00
35806;BME280;21925;44.608;11.580;2024-03-22T02:12:37;71488.41;;;-140.51;100.00
35806;BME280;21925;44.608;11.580;2024-03-22T02:15:03;71488.41;;;-140.51;100.00
35806;BME280;21925;44.608;11.580;2024-03-22T02:17:29;71488.41;;;-140.51;100.00
35806;BME280;21925;44.608;11.580;2024-03-22T02:19:55;71488.41;;;-140.51;100.00
35806;BME280;21925;44.608;11.580;2024-03-22T02:22:20;71488.41;;;-140.51;100.00
35806;BME280;21925;44.608;11.580;2024-03-22T02:24:46;71488.41;;;-140.51;100.00
35806;BME280;21925;44.608;11.580;2024-03-22T02:27:12;71488.41;;;-140.51;100.00
35806;BME280;21925;44.608;11.580;2024-03-22T02:29:37;71488.41;;;-140.51;100.00
35806;BME280;21925;44.608;11.580;2024-03-22T02:32:03;71488.41;;;-140.51;100.00
35806;BME280;21925;44.608;11.580;2024-03-22T02:34:29;71488.41;;;-140.51;100.00
35806;BME280;21925;44.608;11.580;2024-03-22T02:36:54;71488.41;;;-140.51;100.00
35806;BME280;21925;44.608;11.580;2024-03-22T02:39:20;71488.41;;;-140.51;100.00
35806;BME280;21925;44.608;11.580;2024-03-22T02:41:46;71488.41;;;-140.51;100.00
35806;BME280;21925;44.608;11.580;2024-03-22T02:44:11;71488.41;;;-140.51;100.00
35806;BME280;21925;44.608;11.580;2024-03-22T02:46:37;71488.41;;;-140.51;100.00
35806;BME280;21925;44.608;11.580;2024-03-22T02:49:03;71488.41;;;-140.51;100.00
35806;BME280;21925;44.608;11.580;2024-03-22T02:51:28;71488.41;;;-140.51;100.00
35806;BME280;21925;44.608;11.580;2024-03-22T02:53:54;71488.41;;;-140.51;100.00
35806;BME280;21925;44.608;11.580;2024-03-22T02:56:20;71488.41;;;-140.51;100.00
35806;BME280;21925;44.608;11.580;2024-03-22T02:58:46;71488.41;;;-140.51;100.00
35806;BME280;21925;44.608;11.580;2024-03-22T03:01:12;71488.41;;;-140.51;100.00
35806;BME280;21925;44.608;11.580;2024-03-22T03:03:37;71488.41;;;-140.51;100.00
35806;BME280;21925;44.608;11.580;2024-03-22T03:06:03;71488.41;;;-140.51;100.00
35806;BME280;21925;44.608;11.580;2024-03-22T03:08:29;71488.41;;;-140.51;100.00
35806;BME280;21925;44.608;11.580;2024-03-22T03:10:55;71488.41;;;-140.51;100.00
35806;BME280;21925;44.608;11.580;2024-03-22T03:13:20;71488.41;;;-140.51;100.00
35806;BME280;21925;44.608;11.580;2024-03-22T03:15:46;71488.41;;;-140.51;100.00
35806;BME280;21925;44.608;11.580;2024-03-22T03:18:12;71488.41;;;-140.51;100.00
35806;BME280;21925;44.608;11.580;2024-03-22T03:20:37;71488.41;;;-140.51;100.00
35806;BME280;21925;44.608;11.580;2024-03-22T03:23:03;71488.41;;;-140.51;100.00
35806;BME280;21925;44.608;11.580;2024-03-22T03:25:29;71488.41;;;-140.51;100.00
35806;BME280;21925;44.608;11.580;2024-03-22T03:27:55;71488.41;;;-140.51;100.00
35806;BME280;21925;44.608;11.580;2024-03-22T03:30:21;71488.41;;;-140.51;100.00
35806;BME280;21925;44.608;11.580;2024-03-22T03:32:46;71488.41;;;-140.51;100.00
35806;BME280;21925;44.608;11.580;2024-03-22T03:35:12;71488.41;;;-140.51;100.00
35806;BME280;21925;44.608;11.580;2024-03-22T03:37:38;71488.41;;;-140.51;100.00
35806;BME280;21925;44.608;11.580;2024-03-22T03:40:04;71488.41;;;-140.51;100.00
35806;BME280;21925;44.608;11.580;2024-03-22T03:42:29;71488.41;;;-140.51;100.00
35806;BME280;21925;44.608;11.580;2024-03-22T03:44:55;71488.41;;;-140.51;100.00
35806;BME280;21925;44.608;11.580;2024-03-22T03:47:21;71488.41;;;-140.51;100.00
35806;BME280;21925;44.608;11.580;2024-03-22T03:49:46;71488.41;;;-140.51;100.00
35806;BME280;21925;44.608;11.580;2024-03-22T03:52:13;71488.41;;;-140.51;100.00
35806;BME280;21925;44.608;11.580;2024-03-22T03:54:39;71488.41;;;-140.51;100.00
35806;BME280;21925;44.608;11.580;2024-03-22T03:57:05;71488.41;;;-140.51;100.00
35806;BME280;21925;44.608;11.580;2024-03-22T03:59:30;71488.41;;;-140.51;100.00
35806;BME280;21925;44.608;11.580;2024-03-22T04:01:56;71488.41;;;-140.51;100.00
35806;BME280;21925;44.608;11.580;2024-03-22T04:04:22;71488.41;;;-140.51;100.00
35806;BME280;21925;44.608;11.580;2024-03-22T04:06:48;71488.41;;;-140.51;100.00
35806;BME280;21925;44.608;11.580;2024-03-22T04:09:13;71488.41;;;-140.51;100.00
35806;BME280;21925;44.608;11.580;2024-03-22T04:11:39;71488.41;;;-140.51;100.00
35806;BME280;21925;44.608;11.580;2024-03-22T04:14:05;71488.41;;;-140.51;100.00
35806;BME280;21925;44.608;11.580;2024-03-22T04:16:31;71488.41;;;-140.51;100.00
35806;BME280;21925;44.608;11.580;2024-03-22T04:18:57;71488.41;;;-140.51;100.00
35806;BME280;21925;44.608;11.580;2024-03-22T04:21:23;71488.41;;;-140.51;100.00
35806;BME280;21925;44.608;11.580;2024-03-22T04:23:49;71488.41;;;-140.51;100.00
35806;BME280;21925;44.608;11.580;2024-03-22T04:26:15;71488.41;;;-140.51;100.00
35806;BME280;21925;44.608;11.580;2024-03-22T04:28:40;71488.41;;;-140.51;100.00
35806;BME280;21925;44.608;11.580;2024-03-22T04:31:07;71488.41;;;-140.51;100.00
35806;BME280;21925;44.608;11.580;2024-03-22T04:33:35;71488.41;;;-140.51;100.00
35806;BME280;21925;44.608;11.580;2024-03-22T04:36:01;71488.41;;;-140.51;100.00
35806;BME280;21925;44.608;11.580;2024-03-22T04:38:28;71488.41;;;-140.51;100.00
35806;BME280;21925;44.608;11.580;2024-03-22T04:40:55;71488.41;;;-140.51;100.00
35806;BME280;21925;44.608;11.580;2024-03-22T04:43:22;71488.41;;;-140.51;100.00
35806;BME280;21925;44.608;11.580;2024-03-22T04:45:48;71488.41;;;-140.51;100.00
35806;BME280;21925;44.608;11.580;2024-03-22T04:48:16;71488.41;;;-140.51;100.00
35806;BME280;21925;44.608;11.580;2024-03-22T04:50:41;71488.41;;;-140.51;100.00
35806;BME280;21925;44.608;11.580;2024-03-22T04:53:07;71488.41;;;-140.51;100.00
35806;BME280;21925;44.608;11.580;2024-03-22T04:55:33;71488.41;;;-140.51;100.00
35806;BME280;21925;44.608;11.580;2024-03-22T04:57:59;71488.41;;;-140.51;100.00
35806;BME280;21925;44.608;11.580;2024-03-22T05:00:25;71488.41;;;-140.51;100.00
35806;BME280;21925;44.608;11.580;2024-03-22T05:02:51;71488.41;;;-140.51;100.00
35806;BME280;21925;44.608;11.580;2024-03-22T05:05:18;71488.41;;;-140.51;100.00
35806;BME280;21925;44.608;11.580;2024-03-22T05:07:43;71488.41;;;-140.51;100.00
35806;BME280;21925;44.608;11.580;2024-03-22T05:10:09;71488.41;;;-140.51;100.00
35806;BME280;21925;44.608;11.580;2024-03-22T05:12:35;71488.41;;;-140.51;100.00
35806;BME280;21925;44.608;11.580;2024-03-22T05:15:05;71488.41;;;-140.51;100.00
35806;BME280;21925;44.608;11.580;2024-03-22T05:17:31;71488.41;;;-140.51;100.00
35806;BME280;21925;44.608;11.580;2024-03-22T05:19:58;71488.41;;;-140.51;100.00
35806;BME280;21925;44.608;11.580;2024-03-22T05:22:24;71488.41;;;-140.51;100.00
35806;BME280;21925;44.608;11.580;2024-03-22T05:24:50;71488.41;;;-140.51;100.00
35806;BME280;21925;44.608;11.580;2024-03-22T05:27:17;71488.41;;;-140.51;100.00
35806;BME280;21925;44.608;11.580;2024-03-22T05:29:43;71488.41;;;-140.51;100.00
35806;BME280;21925;44.608;11.580;2024-03-22T05:32:08;71488.41;;;-140.51;100.00
35806;BME280;21925;44.608;11.580;2024-03-22T05:34:34;71488.41;;;-140.51;100.00
35806;BME280;21925;44.608;11.580;2024-03-22T05:37:01;71488.41;;;-140.51;100.00
35806;BME280;21925;44.608;11.580;2024-03-22T05:39:27;71488.41;;;-140.51;100.00
35806;BME280;21925;44.608;11.580;2024-03-22T05:41:52;71488.41;;;-140.51;100.00
35806;BME280;21925;44.608;11.580;2024-03-22T05:44:21;71488.41;;;-140.51;100.00
35806;BME280;21925;44.608;11.580;2024-03-22T05:46:47;71488.41;;;-140.51;100.00
35806;BME280;21925;44.608;11.580;2024-03-22T05:49:12;71488.41;;;-140.51;100.00
35806;BME280;21925;44.608;11.580;2024-03-22T05:51:38;71488.41;;;-140.51;100.00
35806;BME280;21925;44.608;11.580;2024-03-22T05:54:04;71488.41;;;-140.51;100.00
35806;BME280;21925;44.608;11.580;2024-03-22T05:56:30;71488.41;;;-140.51;100.00
35806;BME280;21925;44.608;11.580;2024-03-22T05:58:55;71488.41;;;-140.51;100.00
35806;BME280;21925;44.608;11.580;2024-03-22T06:01:21;71488.41;;;-140.51;100.00
35806;BME280;21925;44.608;11.580;2024-03-22T06:03:47;71488.41;;;-140.51;100.00
35806;BME280;21925;44.608;11.580;2024-03-22T06:06:12;71488.41;;;-140.51;100.00
35806;BME280;21925;44.608;11.580;2024-03-22T06:08:38;71488.41;;;-140.51;100.00
35806;BME280;21925;44.608;11.580;2024-03-22T06:11:07;71488.41;;;-140.51;100.00
35806;BME280;21925;44.608;11.580;2024-03-22T06:13:33;71488.41;;;-140.51;100.00
35806;BME280;21925;44.608;11.580;2024-03-22T06:15:59;71488.41;;;-140.51;100.00
35806;BME280;21925;44.608;11.580;2024-03-22T06:18:25;71488.41;;;-140.51;100.00
35806;BME280;21925;44.608;11.580;2024-03-22T06:20:51;71488.41;;;-140.51;100.00
35806;BME280;21925;44.608;11.580;2024-03-22T06:23:19;71488.41;;;-140.51;100.00
35806;BME280;21925;44.608;11.580;2024-03-22T06:25:55;71488.41;;;-140.51;100.00
35806;BME280;21925;44.608;11.580;2024-03-22T06:28:21;71488.41;;;-140.51;100.00
35806;BME280;21925;44.608;11.580;2024-03-22T06:30:47;71488.41;;;-140.51;100.00
35806;BME280;21925;44.608;11.580;2024-03-22T06:33:13;71488.41;;;-140.51;100.00
35806;BME280;21925;44.608;11.580;2024-03-22T06:35:40;71488.41;;;-140.51;100.00
35806;BME280;21925;44.608;11.580;2024-03-22T06:38:14;71488.41;;;-140.51;100.00
35806;BME280;21925;44.608;11.580;2024-03-22T06:41:11;71488.41;;;-140.51;100.00
35806;BME280;21925;44.608;11.580;2024-03-22T06:43:37;71488.41;;;-140.51;100.00
35806;BME280;21925;44.608;11.580;2024-03-22T06:49:03;71488.41;;;-140.51;100.00
35806;BME280;21925;44.608;11.580;2024-03-22T06:51:30;71488.41;;;-140.51;100.00
35806;BME280;21925;44.608;11.580;2024-03-22T06:53:57;71488.41;;;-140.51;100.00
35806;BME280;21925;44.608;11.580;2024-03-22T06:56:34;71488.41;;;-140.51;100.00
35806;BME280;21925;44.608;11.580;2024-03-22T06:58:59;71488.41;;;-140.51;100.00
35806;BME280;21925;44.608;11.580;2024-03-22T07:01:25;71488.41;;;-140.51;100.00
35806;BME280;21925;44.608;11.580;2024-03-22T07:03:51;71488.41;;;-140.51;100.00
35806;BME280;21925;44.608;11.580;2024-03-22T07:06:18;71488.41;;;-140.51;100.00
35806;BME280;21925;44.608;11.580;2024-03-22T07:08:43;71488.41;;;-140.51;100.00
35806;BME280;21925;44.608;11.580;2024-03-22T07:11:09;71488.41;;;-140.51;100.00
35806;BME280;21925;44.608;11.580;2024-03-22T07:13:35;71488.41;;;-140.51;100.00
35806;BME280;21925;44.608;11.580;2024-03-22T07:16:01;71488.41;;;-140.51;100.00
35806;BME280;21925;44.608;11.580;2024-03-22T07:18:27;71488.41;;;-140.51;100.00
35806;BME280;21925;44.608;11.580;2024-03-22T07:20:53;71488.41;;;-140.51;100.00
35806;BME280;21925;44.608;11.580;2024-03-22T07:23:18;71488.41;;;-140.51;100.00
35806;BME280;21925;44.608;11.580;2024-03-22T07:25:44;71488.41;;;-140.51;100.00
35806;BME280;21925;44.608;11.580;2024-03-22T07:28:11;71488.41;;;-140.51;100.00
35806;BME280;21925;44.608;11.580;2024-03-22T07:30:37;71488.41;;;-140.51;100.00
35806;BME280;21925;44.608;11.580;2024-03-22T07:33:03;71488.41;;;-140.51;100.00
35806;BME280;21925;44.608;11.580;2024-03-22T07:35:29;71488.41;;;-140.51;100.00
35806;BME280;21925;44.608;11.580;2024-03-22T07:37:56;71488.41;;;-140.51;100.00
35806;BME280;21925;44.608;11.580;2024-03-22T07:40:22;71488.41;;;-140.51;100.00
35806;BME280;21925;44.608;11.580;2024-03-22T07:42:47;71488.41;;;-140.51;100.00
35806;BME280;21925;44.608;11.580;2024-03-22T07:45:13;71488.41;;;-140.51;100.00
35806;BME280;21925;44.608;11.580;2024-03-22T07:47:39;71488.41;;;-140.51;100.00
35806;BME280;21925;44.608;11.580;2024-03-22T07:50:08;71488.41;;;-140.51;100.00
35806;BME280;21925;44.608;11.580;2024-03-22T07:52:34;71488.41;;;-140.51;100.00
35806;BME280;21925;44.608;11.580;2024-03-22T07:55:00;71488.41;;;-140.51;100.00
35806;BME280;21925;44.608;11.580;2024-03-22T07:57:31;71488.41;;;-140.51;100.00
35806;BME280;21925;44.608;11.580;2024-03-22T08:00:00;71488.41;;;-140.51;100.00
35806;BME280;21925;44.608;11.580;2024-03-22T08:02:37;71488.41;;;-140.51;100.00
35806;BME280;21925;44.608;11.580;2024-03-22T08:05:03;71488.41;;;-140.51;100.00
35806;BME280;21925;44.608;11.580;2024-03-22T08:07:29;71488.41;;;-140.51;100.00
35806;BME280;21925;44.608;11.580;2024-03-22T08:09:55;71488.41;;;-140.51;100.00
35806;BME280;21925;44.608;11.580;2024-03-22T08:12:21;71488.41;;;-140.51;100.00
35806;BME280;21925;44.608;11.580;2024-03-22T08:14:47;71488.41;;;-140.51;100.00
35806;BME280;21925;44.608;11.580;2024-03-22T08:17:13;71488.41;;;-140.51;100.00
35806;BME280;21925;44.608;11.580;2024-03-22T08:19:40;71488.41;;;-140.51;100.00
35806;BME280;21925;44.608;11.580;2024-03-22T08:22:06;71488.41;;;-140.51;100.00
35806;BME280;21925;44.608;11.580;2024-03-22T08:24:32;71488.41;;;-140.51;100.00
35806;BME280;21925;44.608;11.580;2024-03-22T08:27:00;71488.41;;;-140.51;100.00
35806;BME280;21925;44.608;11.580;2024-03-22T08:29:30;71488.41;;;-140.51;100.00
35806;BME280;21925;44.608;11.580;2024-03-22T08:31:56;71488.41;;;-140.51;100.00
35806;BME280;21925;44.608;11.580;2024-03-22T08:34:22;71488.41;;;-140.51;100.00
35806;BME280;21925;44.608;11.580;2024-03-22T08:36:48;71488.41;;;-140.51;100.00
35806;BME280;21925;44.608;11.580;2024-03-22T08:39:21;71488.41;;;-140.51;100.00
35806;BME280;21925;44.608;11.580;2024-03-22T08:41:47;71488.41;;;-140.51;100.00
35806;BME280;21925;44.608;11.580;2024-03-22T08:44:13;71488.41;;;-140.51;100.00
35806;BME280;21925;44.608;11.580;2024-03-22T08:46:39;71488.41;;;-140.51;100.00
35806;BME280;21925;44.608;11.580;2024-03-22T08:49:04;71488.41;;;-140.51;100.00
35806;BME280;21925;44.608;11.580;2024-03-22T08:51:30;71488.41;;;-140.51;100.00
35806;BME280;21925;44.608;11.580;2024-03-22T08:53:56;71488.41;;;-140.51;100.00
35806;BME280;21925;44.608;11.580;2024-03-22T08:56:22;71488.41;;;-140.51;100.00
35806;BME280;21925;44.608;11.580;2024-03-22T08:58:48;71488.41;;;-140.51;100.00
35806;BME280;21925;44.608;11.580;2024-03-22T09:01:15;71488.41;;;-140.51;100.00
35806;BME280;21925;44.608;11.580;2024-03-22T09:03:40;71488.41;;;-140.51;100.00
35806;BME280;21925;44.608;11.580;2024-03-22T09:06:06;71488.41;;;-140.51;100.00
35806;BME280;21925;44.608;11.580;2024-03-22T09:08:32;71488.41;;;-140.51;100.00
35806;BME280;21925;44.608;11.580;2024-03-22T09:10:59;71488.41;;;-140.51;100.00
35806;BME280;21925;44.608;11.580;2024-03-22T09:13:25;71488.41;;;-140.51;100.00
35806;BME280;21925;44.608;11.580;2024-03-22T09:16:01;71488.41;;;-140.51;100.00
35806;BME280;21925;44.608;11.580;2024-03-22T09:18:28;71488.41;;;-140.51;100.00
35806;BME280;21925;44.608;11.580;2024-03-22T09:20:54;71488.41;;;-140.51;100.00
35806;BME280;21925;44.608;11.580;2024-03-22T09:23:20;71488.41;;;-140.51;100.00
35806;BME280;21925;44.608;11.580;2024-03-22T09:25:46;71488.41;;;-140.51;100.00
35806;BME280;21925;44.608;11.580;2024-03-22T09:28:13;71488.41;;;-140.51;100.00
35806;BME280;21925;44.608;11.580;2024-03-22T09:30:39;71488.41;;;-140.51;100.00
35806;BME280;21925;44.608;11.580;2024-03-22T09:33:06;71488.41;;;-140.51;100.00
35806;BME280;21925;44.608;11.580;2024-03-22T09:35:35;71488.41;;;-140.51;100.00
35806;BME280;21925;44.608;11.580;2024-03-22T09:38:02;71488.41;;;-140.51;100.00
35806;BME280;21925;44.608;11.580;2024-03-22T09:40:28;71488.41;;;-140.51;100.00
35806;BME280;21925;44.608;11.580;2024-03-22T09:43:03;71488.41;;;-140.51;100.00
35806;BME280;21925;44.608;11.580;2024-03-22T09:45:37;71488.41;;;-140.51;100.00
35806;BME280;21925;44.608;11.580;2024-03-22T09:48:05;71488.41;;;-140.51;100.00
35806;BME280;21925;44.608;11.580;2024-03-22T09:50:31;71488.41;;;-140.51;100.00
35806;BME280;21925;44.608;11.580;2024-03-22T09:52:57;71488.41;;;-140.51;100.00
35806;BME280;21925;44.608;11.580;2024-03-22T09:55:30;71488.41;;;-140.51;100.00
35806;BME280;21925;44.608;11.580;2024-03-22T09:58:01;71488.41;;;-140.51;100.00
35806;BME280;21925;44.608;11.580;2024-03-22T10:00:27;71488.41;;;-140.51;100.00
35806;BME280;21925;44.608;11.580;2024-03-22T10:02:53;71488.41;;;-140.51;100.00
35806;BME280;21925;44.608;11.580;2024-03-22T10:05:19;71488.41;;;-140.51;100.00
35806;BME280;21925;44.608;11.580;2024-03-22T10:07:45;71488.41;;;-140.51;100.00
35806;BME280;21925;44.608;11.580;2024-03-22T10:10:11;71488.41;;;-140.51;100.00
35806;BME280;21925;44.608;11.580;2024-03-22T10:12:37;71488.41;;;-140.51;100.00
35806;BME280;21925;44.608;11.580;2024-03-22T10:15:05;71488.41;;;-140.51;100.00
35806;BME280;21925;44.608;11.580;2024-03-22T10:17:37;71488.41;;;-140.51;100.00
35806;BME280;21925;44.608;11.580;2024-03-22T10:20:05;71488.41;;;-140.51;100.00
35806;BME280;21925;44.608;11.580;2024-03-22T10:22:57;71488.41;;;-140.51;100.00
35806;BME280;21925;44.608;11.580;2024-03-22T10:25:26;71488.41;;;-140.51;100.00
35806;BME280;21925;44.608;11.580;2024-03-22T10:27:56;71488.41;;;-140.51;100.00
35806;BME280;21925;44.608;11.580;2024-03-22T10:30:25;71488.41;;;-140.51;100.00
35806;BME280;21925;44.608;11.580;2024-03-22T10:32:51;71488.41;;;-140.51;100.00
35806;BME280;21925;44.608;11.580;2024-03-22T10:35:18;71488.41;;;-140.51;100.00
35806;BME280;21925;44.608;11.580;2024-03-22T10:37:47;71488.41;;;-140.51;100.00
35806;BME280;21925;44.608;11.580;2024-03-22T10:40:13;71488.41;;;-140.51;100.00
35806;BME280;21925;44.608;11.580;2024-03-22T10:42:41;71488.41;;;-140.51;100.00
35806;BME280;21925;44.608;11.580;2024-03-22T10:45:09;71488.41;;;-140.51;100.00
35806;BME280;21925;44.608;11.580;2024-03-22T10:47:37;71488.41;;;-140.51;100.00
35806;BME280;21925;44.608;11.580;2024-03-22T10:50:11;71488.41;;;-140.51;100.00
35806;BME280;21925;44.608;11.580;2024-03-22T10:52:45;71488.41;;;-140.51;100.00
35806;BME280;21925;44.608;11.580;2024-03-22T10:55:19;71488.41;;;-140.51;100.00
35806;BME280;21925;44.608;11.580;2024-03-22T10:57:45;71488.41;;;-140.51;100.00
35806;BME280;21925;44.608;11.580;2024-03-22T11:00:12;71488.41;;;-140.51;100.00
35806;BME280;21925;44.608;11.580;2024-03-22T11:02:43;71488.41;;;-140.51;100.00
35806;BME280;21925;44.608;11.580;2024-03-22T11:05:18;71488.41;;;-140.51;100.00
35806;BME280;21925;44.608;11.580;2024-03-22T11:07:45;71488.41;;;-140.51;100.00
35806;BME280;21925;44.608;11.580;2024-03-22T11:10:12;71488.41;;;-140.51;100.00
35806;BME280;21925;44.608;11.580;2024-03-22T11:12:41;71488.41;;;-140.51;100.00
35806;BME280;21925;44.608;11.580;2024-03-22T11:15:08;71488.41;;;-140.51;100.00
35806;BME280;21925;44.608;11.580;2024-03-22T11:17:36;71488.41;;;-140.51;100.00
35806;BME280;21925;44.608;11.580;2024-03-22T11:20:02;71488.41;;;-140.51;100.00
35806;BME280;21925;44.608;11.580;2024-03-22T11:22:28;71488.41;;;-140.51;100.00
35806;BME280;21925;44.608;11.580;2024-03-22T11:24:54;71488.41;;;-140.51;100.00
35806;BME280;21925;44.608;11.580;2024-03-22T11:27:20;71488.41;;;-140.51;100.00
35806;BME280;21925;44.608;11.580;2024-03-22T11:29:46;71488.41;;;-140.51;100.00
35806;BME280;21925;44.608;11.580;2024-03-22T11:32:15;71488.41;;;-140.51;100.00
35806;BME280;21925;44.608;11.580;2024-03-22T11:34:41;71488.41;;;-140.51;100.00
35806;BME280;21925;44.608;11.580;2024-03-22T11:37:07;71488.41;;;-140.51;100.00
35806;BME280;21925;44.608;11.580;2024-03-22T11:39:39;71488.41;;;-140.51;100.00
35806;BME280;21925;44.608;11.580;2024-03-22T11:42:06;71488.41;;;-140.51;100.00
35806;BME280;21925;44.608;11.580;2024-03-22T11:44:36;71488.41;;;-140.51;100.00
35806;BME280;21925;44.608;11.580;2024-03-22T11:47:03;71488.41;;;-140.51;100.00
35806;BME280;21925;44.608;11.580;2024-03-22T11:49:29;71488.41;;;-140.51;100.00
35806;BME280;21925;44.608;11.580;2024-03-22T11:51:58;71488.41;;;-140.51;100.00
35806;BME280;21925;44.608;11.580;2024-03-22T11:54:24;71488.41;;;-140.51;100.00
35806;BME280;21925;44.608;11.580;2024-03-22T11:56:51;71488.41;;;-140.51;100.00
35806;BME280;21925;44.608;11.580;2024-03-22T11:59:20;71488.41;;;-140.51;100.00
35806;BME280;21925;44.608;11.580;2024-03-22T12:01:47;71488.41;;;-140.51;100.00
35806;BME280;21925;44.608;11.580;2024-03-22T12:04:13;71488.41;;;-140.51;100.00
35806;BME280;21925;44.608;11.580;2024-03-22T12:06:45;71488.41;;;-140.51;100.00
35806;BME280;21925;44.608;11.580;2024-03-22T12:09:14;71488.41;;;-140.51;100.00
35806;BME280;21925;44.608;11.580;2024-03-22T12:11:40;71488.41;;;-140.51;100.00
35806;BME280;21925;44.608;11.580;2024-03-22T12:14:06;71488.41;;;-140.51;100.00
35806;BME280;21925;44.608;11.580;2024-03-22T12:16:32;71488.41;;;-140.51;100.00
35806;BME280;21925;44.608;11.580;2024-03-22T12:18:58;71488.41;;;-140.51;100.00
35806;BME280;21925;44.608;11.580;2024-03-22T12:21:24;71488.41;;;-140.51;100.00